Terminal Aerodrome Forecast
Issued by NWS Dodge City, KS

Home | Current Version | Previous Version | Graphics & Text | Print | Product List | Glossary Off
Versions: 1 2 3 4 5 6 7 8 9 10 11 12 13 14 15 16

000
FTUS43 KDDC 211249 AAA
TAFDDC
TAF AMD
KDDC 211249Z 2113/2212 16013KT P6SM BKN070
     FM212000 18013G20KT P6SM VCTS BKN070CB
     FM220100 17010KT P6SM BKN080
     FM221100 36007KT P6SM SCT100=

USA.gov is the U.S. government's official web portal to all federal, state and local government web resources and services.